Time;durP1;ratioP1;P1;durP2;ratioP2;P2;SDS_P1;SDS_P2;PMS_P1;PMS_P2;Temp;Humidity;BMP_temperature;BMP_pressure;BME280_temperature;BME280_humidity;BME280_pressure;Samples;Min_cycle;Max_cycle;Signal;HPM_P1;HPM_P2
2022/04/30 00:01:06;;;;;;;;;;;;;;;14.89;76.59;100666.91;5033636;28;19909;-59
2022/04/30 00:03:31;;;;;;;;;;;;;;;14.82;77.27;100674.31;5034027;28;19920;-60
2022/04/30 00:05:57;;;;;;;;;;;;;;;14.85;76.83;100671.50;5033644;28;19955;-60
2022/04/30 00:08:22;;;;;;;;;;;;;;;14.82;76.79;100671.63;5034188;28;19912;-60
2022/04/30 00:10:48;;;;;;;;;;;;;;;14.81;77.80;100675.22;5033405;28;19921;-60
2022/04/30 00:13:14;;;;;;;;;;;;;;;14.77;77.01;100662.91;5036326;28;19917;-59
2022/04/30 00:15:39;;;;;;;;;;;;;;;14.78;77.62;100669.97;5033025;28;19913;-59
2022/04/30 00:18:06;;;;;;;;;;;;;;;14.78;78.14;100669.97;5049822;28;19916;-59
2022/04/30 00:20:32;;;;;;;;;;;;;;;14.76;77.69;100674.53;5053475;28;19915;-59
2022/04/30 00:22:58;;;;;;;;;;;;;;;14.76;78.21;100671.84;5053127;28;19917;-59
2022/04/30 00:25:23;;;;;;;;;;;;;;;14.80;79.06;100680.63;5053394;28;19912;-59
2022/04/30 00:27:49;;;;;;;;;;;;;;;14.78;79.79;100680.69;5053207;28;20128;-59
2022/04/30 00:30:15;;;;;;;;;;;;;;;14.77;79.87;100673.59;5052727;28;19932;-59
2022/04/30 00:32:41;;;;;;;;;;;;;;;14.78;79.93;100680.69;5053323;28;19909;-59
2022/04/30 00:35:07;;;;;;;;;;;;;;;14.78;79.75;100680.69;5053229;28;19916;-59
2022/04/30 00:37:32;;;;;;;;;;;;;;;14.76;78.07;100684.38;5052931;28;19908;-59
2022/04/30 00:39:57;;;;;;;;;;;;;;;14.74;78.38;100679.09;5053031;28;19970;-60
2022/04/30 00:42:23;;;;;;;;;;;;;;;14.72;79.04;100680.94;5052850;28;19912;-60
2022/04/30 00:44:49;;;;;;;;;;;;;;;14.67;79.85;100672.22;5052911;28;19966;-60
2022/04/30 00:47:18;;;;;;;;;;;;;;;14.70;80.07;100673.88;5052835;28;19978;-60
2022/04/30 00:49:44;;;;;;;;;;;;;;;14.73;81.21;100669.28;5052822;28;19908;-59
2022/04/30 00:52:12;;;;;;;;;;;;;;;14.75;81.28;100667.44;5037840;28;19917;-59
2022/04/30 00:54:40;;;;;;;;;;;;;;;14.76;81.73;100671.84;5032899;28;20325;-59
2022/04/30 00:57:08;;;;;;;;;;;;;;;14.75;81.52;100669.22;5032596;28;19966;-59
2022/04/30 00:59:37;;;;;;;;;;;;;;;14.76;80.82;100671.84;5032950;28;19909;-59
2022/04/30 01:02:03;;;;;;;;;;;;;;;14.80;81.94;100669.91;5034835;28;19913;-59
2022/04/30 01:04:28;;;;;;;;;;;;;;;14.81;81.48;100680.56;5052498;28;19962;-59
2022/04/30 01:06:57;;;;;;;;;;;;;;;14.80;82.55;100678.84;5052362;28;19909;-59
2022/04/30 01:09:23;;;;;;;;;;;;;;;14.84;83.14;100675.13;5052477;28;20279;-59
2022/04/30 01:11:52;;;;;;;;;;;;;;;14.83;82.79;100673.34;5052289;28;19909;-59
2022/04/30 01:14:18;;;;;;;;;;;;;;;14.77;83.20;100662.91;5052443;28;20364;-59
2022/04/30 01:16:44;;;;;;;;;;;;;;;14.77;84.73;100668.25;5047678;28;19920;-59
2022/04/30 01:19:15;;;;;;;;;;;;;;;14.75;84.47;100662.06;5034684;28;19927;-60
2022/04/30 01:21:42;;;;;;;;;;;;;;;14.73;85.20;100665.75;5031991;28;19925;-60
2022/04/30 01:24:08;;;;;;;;;;;;;;;14.66;85.19;100656.22;5032358;28;20016;-59
2022/04/30 01:26:33;;;;;;;;;;;;;;;14.58;86.08;100651.13;5037253;28;20008;-59
2022/04/30 01:28:59;;;;;;;;;;;;;;;14.59;86.58;100657.38;5052290;28;19913;-59
2022/04/30 01:39:35;;;;;;;;;;;;;;;14.42;88.64;100645.53;5050369;28;19920;-60
2022/04/30 01:42:11;;;;;;;;;;;;;;;14.41;89.97;100646.44;5050164;28;19909;-60
2022/04/30 01:44:36;;;;;;;;;;;;;;;14.40;89.94;100649.16;5050031;28;20528;-60
2022/04/30 01:47:02;;;;;;;;;;;;;;;14.43;90.80;100651.75;5044580;28;19919;-59
2022/04/30 01:49:27;;;;;;;;;;;;;;;14.48;89.64;100652.41;5032256;28;19915;-59
2022/04/30 01:51:52;;;;;;;;;;;;;;;14.46;89.44;100646.28;5040850;28;19909;-59
2022/04/30 01:54:18;;;;;;;;;;;;;;;14.47;89.39;100642.66;5051958;28;20294;-59
2022/04/30 01:56:44;;;;;;;;;;;;;;;14.51;90.93;100649.66;5052042;28;19917;-59
2022/04/30 01:59:09;;;;;;;;;;;;;;;14.50;89.93;100650.56;5051889;28;20144;-59
2022/04/30 02:01:37;;;;;;;;;;;;;;;14.49;90.42;100640.81;5051732;28;19909;-59
2022/04/30 02:04:02;;;;;;;;;;;;;;;14.50;89.63;100643.41;5051672;28;20260;-59
2022/04/30 02:06:28;;;;;;;;;;;;;;;14.49;89.03;100638.13;5051918;28;19909;-59
2022/04/30 02:08:54;;;;;;;;;;;;;;;14.48;88.79;100645.28;5051880;28;19908;-59
2022/04/30 02:11:20;;;;;;;;;;;;;;;14.47;90.16;100646.22;5051847;28;19948;-59
2022/04/30 02:13:52;;;;;;;;;;;;;;;14.50;90.14;100642.53;5041651;28;19958;-59
2022/04/30 02:16:19;;;;;;;;;;;;;;;14.46;90.20;100633.75;5033278;28;19909;-59
2022/04/30 02:18:45;;;;;;;;;;;;;;;14.45;91.02;100644.50;5051972;28;19955;-59
2022/04/30 02:21:11;;;;;;;;;;;;;;;14.44;91.67;100641.00;5051372;28;19946;-59
2022/04/30 02:23:36;;;;;;;;;;;;;;;14.46;91.51;100638.25;5051561;28;19913;-59
2022/04/30 02:26:04;;;;;;;;;;;;;;;14.48;91.60;100639.91;5051611;28;20425;-59
2022/04/30 02:28:30;;;;;;;;;;;;;;;14.51;90.82;100638.94;5050629;28;19912;-59
2022/04/30 02:30:56;;;;;;;;;;;;;;;14.53;91.63;100642.41;5049676;28;19912;-59
2022/04/30 02:33:22;;;;;;;;;;;;;;;14.54;91.59;100641.50;5050264;28;20003;-59
2022/04/30 02:35:47;;;;;;;;;;;;;;;14.55;91.50;100639.69;5050241;28;20007;-59
2022/04/30 02:38:12;;;;;;;;;;;;;;;14.55;92.21;100629.84;5052218;28;19916;-59
2022/04/30 02:40:39;;;;;;;;;;;;;;;14.52;91.70;100624.63;5053914;28;19935;-59
2022/04/30 02:43:08;;;;;;;;;;;;;;;14.52;91.75;100624.63;5045377;28;19913;-59
2022/04/30 02:45:35;;;;;;;;;;;;;;;14.49;91.98;100616.72;5035326;28;19905;-59
2022/04/30 02:48:02;;;;;;;;;;;;;;;14.49;91.59;100608.69;5035211;28;19955;-59
2022/04/30 02:50:28;;;;;;;;;;;;;;;14.41;90.66;100608.09;5035300;28;19956;-59
2022/04/30 02:52:56;;;;;;;;;;;;;;;14.32;89.87;100611.13;5034879;28;19959;-59
2022/04/30 02:55:22;;;;;;;;;;;;;;;14.31;89.43;100617.41;5035262;28;20007;-59
2022/04/30 03:00:39;;;;;;;;;;;;;;;14.33;91.95;100618.25;5035322;28;19961;-59
2022/04/30 03:03:05;;;;;;;;;;;;;;;14.31;92.12;100620.09;5046130;28;19908;-59
2022/04/30 03:05:31;;;;;;;;;;;;;;;14.25;91.82;100614.94;5053174;28;19919;-59
2022/04/30 03:07:57;;;;;;;;;;;;;;;14.12;92.55;100613.63;5052683;28;19916;-59
2022/04/30 03:10:22;;;;;;;;;;;;;;;14.13;92.90;100615.41;5052879;28;20007;-59
2022/04/30 03:12:50;;;;;;;;;;;;;;;14.09;93.42;100608.41;5052790;28;19995;-59
2022/04/30 03:15:19;;;;;;;;;;;;;;;14.09;93.47;100605.72;5053242;28;19909;-59
2022/04/30 03:23:12;;;;;;;;;;;;;;;13.90;94.92;100599.34;5052306;28;20002;-59
2022/04/30 03:25:38;;;;;;;;;;;;;;;13.91;94.79;100603.75;5054624;28;20740;-59
2022/04/30 03:28:03;;;;;;;;;;;;;;;13.84;95.61;100604.88;5053820;28;19912;-59
2022/04/30 03:30:29;;;;;;;;;;;;;;;13.86;96.03;100589.66;5054399;28;20247;-59
2022/04/30 03:32:54;;;;;;;;;;;;;;;13.76;96.99;100596.28;5054243;28;20003;-59
2022/04/30 03:35:19;;;;;;;;;;;;;;;13.69;98.02;100600.13;5054616;28;19978;-60
2022/04/30 03:37:45;;;;;;;;;;;;;;;13.76;99.04;100601.63;5054093;28;19944;-60
2022/04/30 03:40:10;;;;;;;;;;;;;;;13.65;99.68;100602.03;5054047;28;19958;-60
2022/04/30 03:42:35;;;;;;;;;;;;;;;13.66;100.00;100605.56;5054227;28;19931;-60
2022/04/30 03:45:04;;;;;;;;;;;;;;;13.57;100.00;100605.91;5047634;28;19994;-60
2022/04/30 03:47:30;;;;;;;;;;;;;;;13.49;100.00;100599.94;5033986;28;20387;-61
2022/04/30 03:49:55;;;;;;;;;;;;;;;13.43;100.00;100595.69;5047612;28;19917;-60
2022/04/30 03:52:21;;;;;;;;;;;;;;;13.33;100.00;100598.75;5054081;28;19920;-60
2022/04/30 03:54:47;;;;;;;;;;;;;;;13.29;100.00;100591.75;5054138;28;20413;-60
2022/04/30 03:57:12;;;;;;;;;;;;;;;13.23;100.00;100609.72;5053703;28;19908;-60
2022/04/30 03:59:37;;;;;;;;;;;;;;;13.27;100.00;100614.97;5052597;28;19962;-60
2022/04/30 04:02:03;;;;;;;;;;;;;;;13.28;100.00;100614.06;5052006;28;20292;-60
2022/04/30 04:04:29;;;;;;;;;;;;;;;13.23;100.00;100617.75;5051781;28;20086;-60
2022/04/30 04:06:54;;;;;;;;;;;;;;;13.26;100.00;100624.81;5046337;28;20007;-60
2022/04/30 04:09:19;;;;;;;;;;;;;;;13.24;100.00;100622.16;5031992;28;19919;-60
2022/04/30 04:11:44;;;;;;;;;;;;;;;13.28;100.00;100622.06;5032242;28;19917;-60
2022/04/30 04:19:37;;;;;;;;;;;;;;;13.15;100.00;100617.13;5053769;28;19935;-60
2022/04/30 04:22:03;;;;;;;;;;;;;;;13.17;100.00;100617.97;5053319;28;19912;-60
2022/04/30 04:27:12;;;;;;;;;;;;;;;13.15;100.00;100621.59;5052052;28;19916;-60
2022/04/30 04:29:38;;;;;;;;;;;;;;;13.18;100.00;100619.69;5053522;28;19913;-60
2022/04/30 04:32:04;;;;;;;;;;;;;;;13.18;100.00;100622.38;5053089;28;19909;-60
2022/04/30 04:34:29;;;;;;;;;;;;;;;13.16;100.00;100618.88;5052943;28;20296;-60
2022/04/30 04:36:54;;;;;;;;;;;;;;;13.14;100.00;100628.75;5052927;28;20016;-60
2022/04/30 04:39:19;;;;;;;;;;;;;;;13.11;100.00;100639.50;5053097;28;19923;-60
2022/04/30 04:41:45;;;;;;;;;;;;;;;13.12;100.00;100629.72;5052866;28;20348;-60
2022/04/30 04:44:11;;;;;;;;;;;;;;;13.18;100.00;100626.81;5052647;28;19993;-60
2022/04/30 04:46:40;;;;;;;;;;;;;;;13.19;100.00;100628.59;5052674;28;19915;-60
2022/04/30 04:49:06;;;;;;;;;;;;;;;13.16;100.00;100637.56;5052902;28;19912;-60
2022/04/30 04:51:32;;;;;;;;;;;;;;;13.14;100.00;100628.75;5035869;28;19912;-60
2022/04/30 04:53:57;;;;;;;;;;;;;;;13.15;100.00;100632.28;5032786;28;19916;-60
2022/04/30 04:56:23;;;;;;;;;;;;;;;13.18;100.00;100632.16;5032469;28;20348;-60
2022/04/30 04:58:49;;;;;;;;;;;;;;;13.16;100.00;100637.56;5040234;28;19908;-60
2022/04/30 05:01:14;;;;;;;;;;;;;;;13.19;100.00;100632.13;5052608;28;19912;-60
2022/04/30 05:03:40;;;;;;;;;;;;;;;13.27;100.00;100644.34;5052363;28;20387;-60
2022/04/30 05:06:05;;;;;;;;;;;;;;;13.28;100.00;100643.44;5052429;28;19916;-60
2022/04/30 05:08:31;;;;;;;;;;;;;;;13.29;100.00;100645.19;5052725;28;20391;-60
2022/04/30 05:10:56;;;;;;;;;;;;;;;13.33;100.00;100646.84;5052206;28;19916;-60
2022/04/30 05:13:21;;;;;;;;;;;;;;;13.40;100.00;100654.59;5052421;28;19908;-60
2022/04/30 05:15:46;;;;;;;;;;;;;;;13.40;100.00;100651.91;5051073;28;19985;-60
2022/04/30 05:18:12;;;;;;;;;;;;;;;13.40;100.00;100659.03;5051577;28;19913;-60
2022/04/30 05:20:38;;;;;;;;;;;;;;;13.34;100.00;100665.50;5052254;28;20464;-60
2022/04/30 05:23:03;;;;;;;;;;;;;;;13.39;100.00;100663.53;5052056;28;19967;-60
2022/04/30 05:25:29;;;;;;;;;;;;;;;13.45;100.00;100662.44;5051460;28;19980;-60
2022/04/30 05:27:54;;;;;;;;;;;;;;;13.49;100.00;100664.97;5036086;28;19917;-60
2022/04/30 05:30:19;;;;;;;;;;;;;;;13.51;100.00;100667.59;5032346;28;19913;-60
2022/04/30 05:32:44;;;;;;;;;;;;;;;13.54;100.00;100667.47;5032189;28;20258;-60
2022/04/30 05:35:10;;;;;;;;;;;;;;;13.59;100.00;100671.72;5032361;28;20028;-60
2022/04/30 05:37:35;;;;;;;;;;;;;;;13.69;100.00;100666.97;5040678;28;19909;-60
2022/04/30 05:40:01;;;;;;;;;;;;;;;13.76;100.00;100661.31;5052099;28;19908;-60
2022/04/30 05:42:26;;;;;;;;;;;;;;;13.75;100.00;100667.63;5052140;28;19913;-60
2022/04/30 05:44:51;;;;;;;;;;;;;;;13.79;100.00;100673.72;5052178;28;19924;-60
2022/04/30 05:47:18;;;;;;;;;;;;;;;13.81;100.00;100678.09;5051954;28;19942;-60
2022/04/30 05:49:43;;;;;;;;;;;;;;;13.86;100.00;100676.13;5052058;28;19909;-60
2022/04/30 05:52:09;;;;;;;;;;;;;;;13.91;100.00;100684.88;5049678;28;19909;-60
2022/04/30 05:54:34;;;;;;;;;;;;;;;13.94;100.00;100687.41;5031850;28;20380;-60
2022/04/30 05:57:00;;;;;;;;;;;;;;;13.91;100.00;100690.22;5042611;28;19916;-60
2022/04/30 05:59:25;;;;;;;;;;;;;;;13.90;100.00;100679.56;5052008;28;20287;-60
2022/04/30 06:01:50;;;;;;;;;;;;;;;13.97;100.00;100691.81;5051606;28;19951;-60
2022/04/30 06:04:16;;;;;;;;;;;;;;;14.00;100.00;100689.88;5051701;28;19943;-60
2022/04/30 06:06:42;;;;;;;;;;;;;;;14.06;100.00;100699.47;5051723;28;19931;-60
2022/04/30 06:09:07;;;;;;;;;;;;;;;14.07;100.00;100695.88;5052020;28;19958;-60
2022/04/30 06:11:32;;;;;;;;;;;;;;;14.03;100.00;100702.28;5051440;28;19920;-60
2022/04/30 06:13:58;;;;;;;;;;;;;;;13.98;100.00;100699.78;5055297;28;20003;-60
2022/04/30 06:16:23;;;;;;;;;;;;;;;13.99;100.00;100703.28;5050133;28;19963;-60
2022/04/30 06:18:48;;;;;;;;;;;;;;;13.92;100.00;100701.78;5035801;28;19913;-60
2022/04/30 06:21:13;;;;;;;;;;;;;;;13.95;100.00;100705.19;5037608;28;20380;-60
2022/04/30 06:23:39;;;;;;;;;;;;;;;13.97;100.00;100707.84;5053687;28;19940;-60
2022/04/30 06:26:04;;;;;;;;;;;;;;;13.97;100.00;100707.84;5053479;28;19995;-60
2022/04/30 06:28:29;;;;;;;;;;;;;;;14.04;100.00;100710.25;5053778;28;20503;-60
2022/04/30 06:30:55;;;;;;;;;;;;;;;14.10;100.00;100707.34;5054550;28;20287;-60
2022/04/30 06:33:20;;;;;;;;;;;;;;;14.08;100.00;100717.25;5055453;28;20364;-60
2022/04/30 06:35:45;;;;;;;;;;;;;;;14.15;100.00;100715.22;5055226;28;19909;-60
2022/04/30 06:38:11;;;;;;;;;;;;;;;14.21;100.00;100715.88;5055384;28;19908;-60
2022/04/30 06:40:36;;;;;;;;;;;;;;;14.29;100.00;100720.97;5054927;28;19909;-60
2022/04/30 06:43:02;;;;;;;;;;;;;;;14.23;100.00;100719.34;5055441;28;19916;-60
2022/04/30 06:45:28;;;;;;;;;;;;;;;14.19;100.00;100723.06;5043529;28;19971;-60
2022/04/30 06:47:53;;;;;;;;;;;;;;;14.24;100.00;100714.88;5035148;28;19951;-60
2022/04/30 06:50:18;;;;;;;;;;;;;;;14.25;100.00;100722.00;5034754;28;19952;-60
2022/04/30 06:58:12;;;;;;;;;;;;;;;14.35;100.00;100726.09;5035159;28;19967;-60
2022/04/30 07:03:23;;;;;;;;;;;;;;;14.46;100.00;100727.44;5035278;28;19913;-60
2022/04/30 07:05:51;;;;;;;;;;;;;;;14.41;100.00;100733.91;5034794;28;19948;-60
2022/04/30 07:08:17;;;;;;;;;;;;;;;14.25;99.64;100738.03;5046936;28;19913;-60
2022/04/30 07:10:42;;;;;;;;;;;;;;;14.30;99.70;100733.41;5054650;28;20635;-60
2022/04/30 07:13:07;;;;;;;;;;;;;;;14.34;100.00;100735.06;5054668;28;19909;-60
2022/04/30 07:15:32;;;;;;;;;;;;;;;14.38;100.00;100739.38;5054899;28;20291;-60
2022/04/30 07:17:58;;;;;;;;;;;;;;;14.25;98.22;100743.41;5053865;28;19912;-60
2022/04/30 07:20:23;;;;;;;;;;;;;;;14.21;98.44;100737.28;5054444;28;19947;-60
2022/04/30 07:22:48;;;;;;;;;;;;;;;14.23;99.62;100745.25;5039190;28;19924;-60
2022/04/30 07:25:14;;;;;;;;;;;;;;;14.21;99.16;100742.63;5033312;28;19917;-60
2022/04/30 07:27:39;;;;;;;;;;;;;;;14.21;99.78;100734.59;5034067;28;19908;-60
2022/04/30 07:30:05;;;;;;;;;;;;;;;14.25;99.35;100738.94;5034508;28;19941;-60
2022/04/30 07:32:30;;;;;;;;;;;;;;;14.26;99.67;100737.13;5034395;28;19928;-60
2022/04/30 07:34:56;;;;;;;;;;;;;;;14.22;98.17;100749.72;5037615;28;19908;-60
2022/04/30 07:37:21;;;;;;;;;;;;;;;14.27;98.55;100747.78;5053967;28;19908;-60
2022/04/30 07:39:46;;;;;;;;;;;;;;;14.25;97.34;100756.78;5054262;28;19909;-60
2022/04/30 07:42:11;;;;;;;;;;;;;;;14.25;97.64;100754.09;5053775;28;20330;-60
2022/04/30 07:44:37;;;;;;;;;;;;;;;14.29;97.58;100753.06;5054263;28;19912;-60
2022/04/30 07:47:02;;;;;;;;;;;;;;;14.35;97.39;100752.84;5053751;28;19952;-60
2022/04/30 07:49:28;;;;;;;;;;;;;;;14.45;97.35;100751.59;5054088;28;19940;-60
2022/04/30 07:51:55;;;;;;;;;;;;;;;14.49;95.89;100758.59;5053574;28;19991;-60
2022/04/30 07:54:21;;;;;;;;;;;;;;;14.61;95.66;100757.25;5034079;28;19913;-60
2022/04/30 07:56:47;;;;;;;;;;;;;;;14.61;95.51;100757.25;5033491;28;19963;-60
2022/04/30 07:59:12;;;;;;;;;;;;;;;14.61;95.40;100767.97;5036669;28;19909;-60
2022/04/30 08:01:37;;;;;;;;;;;;;;;14.56;92.56;100761.91;5033827;28;19909;-60
2022/04/30 08:04:03;;;;;;;;;;;;;;;14.48;93.32;100760.38;5033783;28;20360;-60
2022/04/30 08:06:28;;;;;;;;;;;;;;;14.44;93.67;100764.13;5033597;28;19909;-60
2022/04/30 08:08:53;;;;;;;;;;;;;;;14.50;94.45;100761.22;5015945;28;20361;-60
2022/04/30 08:11:19;;;;;;;;;;;;;;;14.59;94.09;100769.81;5033535;28;20260;-60
2022/04/30 08:13:44;;;;;;;;;;;;;;;14.65;94.08;100765.13;5033879;28;19920;-60
2022/04/30 08:16:10;;;;;;;;;;;;;;;14.71;93.87;100766.69;5036463;28;20384;-60
2022/04/30 08:18:38;;;;;;;;;;;;;;;14.71;92.92;100764.88;5053147;28;19913;-60
2022/04/30 08:21:05;;;;;;;;;;;;;;;14.83;93.58;100768.91;5053201;28;19995;-60
2022/04/30 08:23:31;;;;;;;;;;;;;;;14.97;93.32;100766.59;5053249;28;19912;-60
2022/04/30 08:25:56;;;;;;;;;;;;;;;15.08;90.76;100770.59;5052995;28;19919;-60
2022/04/30 08:28:21;;;;;;;;;;;;;;;15.14;89.75;100769.50;5053356;28;19995;-60
2022/04/30 08:30:47;;;;;;;;;;;;;;;15.11;89.05;100767.78;5053276;28;19909;-60
2022/04/30 08:33:12;;;;;;;;;;;;;;;15.16;88.66;100776.53;5053252;28;20483;-60
2022/04/30 08:35:37;;;;;;;;;;;;;;;15.27;90.69;100771.59;5052784;28;20349;-60
2022/04/30 08:38:02;;;;;;;;;;;;;;;15.35;89.24;100765.97;5052917;28;19922;-60
2022/04/30 08:40:28;;;;;;;;;;;;;;;15.44;88.07;100771.84;5053018;28;20011;-60
2022/04/30 08:42:54;;;;;;;;;;;;;;;15.49;86.44;100772.53;5052664;28;19931;-60
2022/04/30 08:45:21;;;;;;;;;;;;;;;15.44;85.42;100770.97;5053307;28;19912;-60
2022/04/30 08:47:47;;;;;;;;;;;;;;;15.47;85.77;100761.00;5052662;28;19912;-60
2022/04/30 08:50:14;;;;;;;;;;;;;;;15.53;85.30;100768.78;5053269;28;20387;-60
2022/04/30 08:52:40;;;;;;;;;;;;;;;15.69;84.16;100767.22;5035254;28;19908;-60
2022/04/30 08:55:06;;;;;;;;;;;;;;;15.78;83.99;100758.78;5032529;28;20579;-60
2022/04/30 08:57:31;;;;;;;;;;;;;;;15.87;83.50;100768.25;5032704;28;19917;-60
2022/04/30 08:59:57;;;;;;;;;;;;;;;15.70;82.82;100760.91;5032902;28;20249;-60
2022/04/30 09:02:23;;;;;;;;;;;;;;;15.55;83.87;100764.22;5033557;28;19909;-60
2022/04/30 09:04:49;;;;;;;;;;;;;;;15.22;82.05;100773.59;5052383;28;20376;-60
2022/04/30 09:07:16;;;;;;;;;;;;;;;15.22;83.89;100770.91;5052416;28;20007;-59
2022/04/30 09:09:41;;;;;;;;;;;;;;;15.33;83.24;100771.38;5052532;28;20269;-59
2022/04/30 09:12:07;;;;;;;;;;;;;;;15.37;84.84;100767.63;5052190;28;19915;-59
2022/04/30 09:14:33;;;;;;;;;;;;;;;15.32;85.64;100769.63;5052749;28;19909;-59
2022/04/30 09:17:03;;;;;;;;;;;;;;;15.20;85.87;100774.59;5049108;28;19916;-59
2022/04/30 09:19:28;;;;;;;;;;;;;;;15.15;85.43;100769.44;5052069;28;19908;-59
2022/04/30 09:21:53;;;;;;;;;;;;;;;15.19;85.84;100770.19;5051805;28;19967;-59
2022/04/30 09:24:18;;;;;;;;;;;;;;;15.28;88.51;100772.50;5052301;28;19924;-59
2022/04/30 09:26:44;;;;;;;;;;;;;;;15.36;88.18;100768.56;5052225;28;19912;-59
2022/04/30 09:29:22;;;;;;;;;;;;;;;15.64;86.93;100766.56;5052005;28;19929;-59
2022/04/30 09:31:49;;;;;;;;;;;;;;;15.90;84.80;100767.28;5052176;28;19952;-59
2022/04/30 09:39:45;;;;;;;;;;;;;;;16.27;81.90;100762.94;5052659;28;19931;-59
2022/04/30 09:42:10;;;;;;;;;;;;;;;16.32;79.03;100781.53;5051756;28;19916;-59
2022/04/30 09:44:37;;;;;;;;;;;;;;;16.55;79.41;100767.97;5052242;28;19913;-60
2022/04/30 09:47:04;;;;;;;;;;;;;;;16.65;78.00;100761.25;5051390;28;19909;-60
2022/04/30 09:55:00;;;;;;;;;;;;;;;16.60;77.49;100768.66;5040485;28;19963;-60
2022/04/30 09:57:26;;;;;;;;;;;;;;;16.32;78.13;100762.72;5051887;28;19954;-60
2022/04/30 09:59:54;;;;;;;;;;;;;;;16.33;78.77;100759.09;5052076;28;19920;-60
2022/04/30 10:02:21;;;;;;;;;;;;;;;16.41;78.97;100749.75;5036321;28;19948;-60
2022/04/30 10:04:47;;;;;;;;;;;;;;;16.51;79.59;100758.31;5032064;28;19924;-60
2022/04/30 10:07:14;;;;;;;;;;;;;;;16.46;77.44;100755.84;5034438;28;19913;-60
2022/04/30 10:09:42;;;;;;;;;;;;;;;16.49;76.81;100755.69;5031976;28;20431;-60
2022/04/30 10:12:19;;;;;;;;;;;;;;;16.70;78.47;100756.53;5031548;28;20411;-60
2022/04/30 10:14:54;;;;;;;;;;;;;;;17.10;78.91;100751.91;5031944;28;19916;-60
2022/04/30 10:17:23;;;;;;;;;;;;;;;17.20;75.34;100751.50;5041613;28;19934;-60
2022/04/30 10:20:01;;;;;;;;;;;;;;;17.07;71.25;100751.19;5051228;28;19918;-60
2022/04/30 10:22:27;;;;;;;;;;;;;;;17.16;76.50;100756.16;5051585;28;19916;-60
2022/04/30 10:24:57;;;;;;;;;;;;;;;17.50;75.44;100750.03;5051476;28;20299;-60
2022/04/30 10:27:23;;;;;;;;;;;;;;;17.45;71.05;100752.94;5051803;28;19916;-61
2022/04/30 10:29:51;;;;;;;;;;;;;;;17.53;70.21;100749.91;5051544;28;19912;-60
2022/04/30 10:32:26;;;;;;;;;;;;;;;17.67;71.33;100750.94;5051600;28;20004;-60
2022/04/30 10:34:54;;;;;;;;;;;;;;;17.86;70.68;100741.00;5051683;28;19999;-60
2022/04/30 10:37:35;;;;;;;;;;;;;;;18.06;70.81;100746.22;5051295;28;19918;-60
2022/04/30 10:40:05;;;;;;;;;;;;;;;18.26;68.04;100738.00;5051460;28;19919;-60
2022/04/30 10:42:31;;;;;;;;;;;;;;;18.56;69.07;100734.66;5044592;28;19951;-60
2022/04/30 10:44:57;;;;;;;;;;;;;;;18.54;65.91;100729.34;5031579;28;19913;-60
2022/04/30 10:47:23;;;;;;;;;;;;;;;18.59;66.63;100734.47;5036912;28;20355;-60
2022/04/30 10:49:49;;;;;;;;;;;;;;;18.76;67.60;100732.63;5050947;28;19909;-60
2022/04/30 10:52:21;;;;;;;;;;;;;;;18.89;66.94;100738.19;5051379;28;19966;-60
2022/04/30 10:54:47;;;;;;;;;;;;;;;18.87;67.50;100734.72;5049903;28;19908;-60
2022/04/30 10:57:13;;;;;;;;;;;;;;;18.81;67.52;100737.75;5050981;28;19955;-60
2022/04/30 10:59:39;;;;;;;;;;;;;;;18.72;65.85;100730.16;5052212;28;20011;-60
2022/04/30 11:02:04;;;;;;;;;;;;;;;18.36;68.01;100733.88;5053135;28;20523;-60
2022/04/30 11:04:30;;;;;;;;;;;;;;;18.24;67.55;100726.41;5052903;28;19917;-60
2022/04/30 11:06:56;;;;;;;;;;;;;;;17.73;68.71;100731.78;5053008;28;19916;-60
2022/04/30 11:09:22;;;;;;;;;;;;;;;17.29;71.56;100727.72;5052895;28;19912;-60
2022/04/30 11:11:48;;;;;;;;;;;;;;;17.06;73.98;100727.94;5053181;28;20395;-60
2022/04/30 11:14:14;;;;;;;;;;;;;;;16.83;73.96;100731.75;5054206;28;19915;-60
2022/04/30 11:16:44;;;;;;;;;;;;;;;16.32;75.58;100738.56;5054732;28;20426;-60
2022/04/30 11:19:11;;;;;;;;;;;;;;;16.05;76.54;100726.34;5054979;28;19908;-60
2022/04/30 11:21:37;;;;;;;;;;;;;;;15.94;77.08;100729.50;5054495;28;19928;-60
2022/04/30 11:24:03;;;;;;;;;;;;;;;15.92;77.89;100733.19;5054668;28;19916;-60
2022/04/30 11:26:30;;;;;;;;;;;;;;;15.93;78.92;100733.09;5051969;28;19908;-60
2022/04/30 11:28:56;;;;;;;;;;;;;;;16.01;80.15;100732.81;5054212;28;19908;-60
2022/04/30 11:31:21;;;;;;;;;;;;;;;16.08;81.86;100723.56;5054275;28;19959;-60
2022/04/30 11:33:46;;;;;;;;;;;;;;;16.00;81.28;100731.03;5054525;28;19913;-60
2022/04/30 11:36:12;;;;;;;;;;;;;;;16.05;81.30;100719.19;5054442;28;20368;-60
2022/04/30 11:38:38;;;;;;;;;;;;;;;16.16;79.35;100724.09;5054284;28;19916;-60
2022/04/30 11:41:07;;;;;;;;;;;;;;;16.37;80.28;100728.50;5054362;28;19909;-60
2022/04/30 11:43:33;;;;;;;;;;;;;;;16.48;78.39;100723.53;5053309;28;19935;-60
2022/04/30 11:45:59;;;;;;;;;;;;;;;16.64;77.53;100720.09;5053149;28;20574;-60
2022/04/30 11:48:27;;;;;;;;;;;;;;;16.85;77.49;100718.22;5054084;28;19915;-60
2022/04/30 11:50:53;;;;;;;;;;;;;;;16.84;76.93;100721.84;5054373;28;20288;-60
2022/04/30 11:53:18;;;;;;;;;;;;;;;16.85;77.09;100723.59;5054171;28;19912;-60
2022/04/30 11:55:44;;;;;;;;;;;;;;;16.86;77.06;100728.03;5053943;28;20362;-60
2022/04/30 11:58:09;;;;;;;;;;;;;;;16.69;75.64;100723.44;5046925;28;20278;-60
2022/04/30 12:00:35;;;;;;;;;;;;;;;16.59;77.36;100730.16;5033637;28;19913;-60
2022/04/30 12:03:01;;;;;;;;;;;;;;;16.58;78.09;100719.50;5034389;28;19913;-60
2022/04/30 12:05:29;;;;;;;;;;;;;;;16.53;76.94;100727.78;5050100;28;20276;-60
2022/04/30 12:07:59;;;;;;;;;;;;;;;16.37;77.96;100725.81;5033768;28;19909;-60
2022/04/30 12:10:26;;;;;;;;;;;;;;;16.38;77.03;100722.16;5033286;28;19909;-60
2022/04/30 12:12:52;;;;;;;;;;;;;;;16.36;77.49;100726.75;5034055;28;19920;-60
2022/04/30 12:15:23;;;;;;;;;;;;;;;16.27;78.13;100725.34;5034437;28;19920;-60
2022/04/30 12:26:05;;;;;;;;;;;;;;;16.03;79.10;100715.69;5053488;28;19967;-60
2022/04/30 12:28:42;;;;;;;;;;;;;;;15.89;79.37;100710.06;5053571;28;19912;-60
2022/04/30 12:31:09;;;;;;;;;;;;;;;15.98;78.75;100719.53;5053190;28;19909;-60
2022/04/30 12:33:41;;;;;;;;;;;;;;;15.98;79.93;100706.09;5053243;28;19908;-60
2022/04/30 12:36:10;;;;;;;;;;;;;;;16.05;81.18;100700.38;5052970;28;20001;-60
2022/04/30 12:38:36;;;;;;;;;;;;;;;16.06;80.09;100706.63;5053310;28;20333;-60
2022/04/30 12:41:01;;;;;;;;;;;;;;;15.99;80.36;100702.47;5053109;28;19996;-60
2022/04/30 12:43:31;;;;;;;;;;;;;;;15.94;80.94;100700.00;5052977;28;20399;-60
2022/04/30 12:45:56;;;;;;;;;;;;;;;15.79;80.99;100703.34;5052873;28;20421;-60
2022/04/30 12:48:21;;;;;;;;;;;;;;;15.74;81.60;100708.91;5052899;28;19908;-60
2022/04/30 12:50:47;;;;;;;;;;;;;;;15.71;81.64;100706.38;5039243;28;20356;-60
2022/04/30 12:53:12;;;;;;;;;;;;;;;15.84;81.97;100698.66;5032997;28;19959;-60
2022/04/30 12:55:38;;;;;;;;;;;;;;;15.93;80.28;100692.03;5032845;28;19920;-61
2022/04/30 12:58:03;;;;;;;;;;;;;;;16.46;80.54;100686.00;5032930;28;19909;-60
2022/04/30 13:00:29;;;;;;;;;;;;;;;17.55;76.76;100684.28;5034817;28;19916;-60
2022/04/30 13:02:54;;;;;;;;;;;;;;;18.73;69.98;100686.09;5052495;28;20007;-60
2022/04/30 13:05:19;;;;;;;;;;;;;;;19.75;66.45;100673.88;5052428;28;19917;-60
2022/04/30 13:07:45;;;;;;;;;;;;;;;20.56;59.83;100669.69;5052748;28;20261;-60
2022/04/30 13:15:39;;;;;;;;;;;;;;;20.42;55.56;100675.09;5052206;28;20480;-60
2022/04/30 13:18:06;;;;;;;;;;;;;;;19.89;57.31;100663.97;5050273;28;19935;-60
2022/04/30 13:20:31;;;;;;;;;;;;;;;19.62;59.46;100666.50;5052194;28;20284;-60
2022/04/30 13:22:56;;;;;;;;;;;;;;;19.30;59.47;100661.25;5052149;28;19925;-60
2022/04/30 13:25:22;;;;;;;;;;;;;;;19.59;59.29;100655.00;5051817;28;19962;-60